Time;durP1;ratioP1;P1;durP2;ratioP2;P2;SDS_P1;SDS_P2;PMS_P1;PMS_P2;Temp;Humidity;BMP_temperature;BMP_pressure;BME280_temperature;BME280_humidity;BME280_pressure;Samples;Min_cycle;Max_cycle;Signal;HPM_P1;HPM_P2
2021/01/27 00:02:02;;;;;;;23.52;13.88;;;26.50;2201.60;;;;;;4936302;29;20374;-83
2021/01/27 00:04:27;;;;;;;19.00;13.57;;;26.50;2201.60;;;;;;4940126;29;20036;-83
2021/01/27 00:06:53;;;;;;;20.08;14.57;;;51.20;2227.20;;;;;;4935866;29;20020;-76
2021/01/27 00:09:19;;;;;;;19.30;15.15;;;26.50;2201.60;;;;;;4938311;29;20032;-81
2021/01/27 00:11:45;;;;;;;20.02;13.85;;;51.20;2227.20;;;;;;4941111;29;20024;-76
2021/01/27 00:14:10;;;;;;;20.02;14.63;;;26.50;2201.60;;;;;;4939285;29;20032;-78
2021/01/27 00:16:36;;;;;;;21.30;16.00;;;26.50;2201.60;;;;;;4939607;29;20044;-82
2021/01/27 00:19:03;;;;;;;26.05;19.10;;;26.50;2201.60;;;;;;4941076;29;20028;-80
2021/01/27 00:21:29;;;;;;;20.95;16.05;;;26.50;2201.60;;;;;;4939157;29;20042;-77
2021/01/27 00:23:54;;;;;;;24.33;16.60;;;26.50;2201.60;;;;;;4935106;29;20031;-84
2021/01/27 00:26:20;;;;;;;26.08;16.45;;;26.50;2201.60;;;;;;4937986;29;20564;-77
2021/01/27 00:28:46;;;;;;;21.10;14.95;;;51.20;2227.20;;;;;;4936997;29;20520;-76
2021/01/27 00:31:11;;;;;;;21.67;14.73;;;26.40;2201.60;;;;;;4941625;29;20055;-85
2021/01/27 00:33:37;;;;;;;19.65;14.63;;;26.50;2201.60;;;;;;4939582;29;20032;-76
2021/01/27 00:36:03;;;;;;;20.50;15.10;;;26.50;2201.60;;;;;;4940523;29;20039;-84
2021/01/27 00:38:29;;;;;;;22.83;15.90;;;26.50;2201.60;;;;;;4940335;29;20481;-75
2021/01/27 00:40:57;;;;;;;22.10;15.80;;;26.50;2201.60;;;;;;4924283;29;20040;-85
2021/01/27 00:43:31;;;;;;;24.73;17.25;;;26.50;2201.60;;;;;;4914848;29;20039;-80
2021/01/27 00:45:57;;;;;;;18.92;13.30;;;26.50;2201.60;;;;;;4943107;28;20074;-76
2021/01/27 00:48:23;;;;;;;22.75;16.75;;;26.50;2201.60;;;;;;4939242;29;20047;-86
2021/01/27 00:50:49;;;;;;;20.08;15.40;;;26.50;2201.60;;;;;;4943600;29;20043;-75
2021/01/27 00:53:16;;;;;;;24.58;18.25;;;26.50;2201.60;;;;;;4936383;29;20033;-76
2021/01/27 00:55:42;;;;;;;21.20;15.30;;;26.50;2201.60;;;;;;4949835;29;20409;-80
2021/01/27 00:58:09;;;;;;;24.00;16.30;;;26.50;2201.60;;;;;;4939974;29;20461;-83
2021/01/27 01:00:40;;;;;;;25.58;16.58;;;26.50;2201.60;;;;;;4925686;29;20102;-84
2021/01/27 01:03:08;;;;;;;19.38;14.90;;;51.20;2227.20;;;;;;4937773;29;20050;-75
2021/01/27 01:05:37;;;;;;;26.02;17.63;;;26.50;2201.60;;;;;;4917966;29;20031;-84
2021/01/27 01:08:03;;;;;;;26.30;17.35;;;51.20;2227.20;;;;;;4934754;29;20032;-76
2021/01/27 01:10:34;;;;;;;24.48;15.77;;;26.50;2201.60;;;;;;4929840;29;20031;-79
2021/01/27 01:13:01;;;;;;;28.15;18.20;;;51.20;2227.20;;;;;;4932398;29;20023;-84
2021/01/27 01:15:29;;;;;;;25.90;18.27;;;51.20;2227.20;;;;;;4936180;29;20039;-81
2021/01/27 01:17:55;;;;;;;23.00;16.75;;;51.20;2227.20;;;;;;4941459;29;20027;-78
2021/01/27 01:20:21;;;;;;;23.45;17.00;;;51.20;2227.20;;;;;;4941880;29;20030;-85
2021/01/27 01:22:50;;;;;;;26.73;18.88;;;51.20;2227.20;;;;;;4942503;29;20042;-75
2021/01/27 01:25:19;;;;;;;31.23;20.10;;;26.50;2201.60;;;;;;4941169;29;20039;-77
2021/01/27 01:27:45;;;;;;;25.98;17.88;;;26.50;2201.60;;;;;;4925754;29;20114;-77
2021/01/27 01:30:25;;;;;;;29.15;19.75;;;51.20;2227.20;;;;;;4943300;29;20535;-83
2021/01/27 01:32:53;;;;;;;26.20;17.85;;;26.50;2201.60;;;;;;4942286;29;20100;-82
2021/01/27 01:35:21;;;;;;;23.80;16.05;;;26.50;2201.60;;;;;;4944862;29;20027;-78
2021/01/27 01:37:48;;;;;;;27.48;18.98;;;26.50;2201.60;;;;;;4939768;29;20119;-76
2021/01/27 01:40:17;;;;;;;26.52;18.40;;;26.40;2201.60;;;;;;4931646;29;20024;-75
2021/01/27 01:42:43;;;;;;;25.52;18.38;;;26.40;2201.60;;;;;;4940976;29;20039;-76
2021/01/27 01:45:34;;;;;;;31.95;21.05;;;26.40;2201.60;;;;;;4947922;29;20047;-77
2021/01/27 01:48:07;;;;;;;31.13;20.02;;;26.40;2201.60;;;;;;4944793;29;20027;-75
2021/01/27 01:50:33;;;;;;;29.67;20.27;;;26.40;2201.60;;;;;;4946389;29;20046;-80
2021/01/27 01:52:59;;;;;;;24.30;16.85;;;26.40;2201.60;;;;;;4941477;29;20409;-75
2021/01/27 01:55:27;;;;;;;31.65;20.20;;;26.40;2201.60;;;;;;4943520;29;20040;-84
2021/01/27 01:57:54;;;;;;;22.92;16.88;;;26.40;2201.60;;;;;;4943928;29;20039;-76
2021/01/27 02:00:33;;;;;;;26.10;17.95;;;26.40;2201.60;;;;;;4949235;29;20031;-76
2021/01/27 02:02:58;;;;;;;28.33;19.17;;;26.40;2201.60;;;;;;4942771;29;20083;-75
2021/01/27 02:05:26;;;;;;;26.42;19.10;;;26.30;2201.60;;;;;;4942571;29;20075;-76
2021/01/27 02:07:53;;;;;;;25.15;18.80;;;26.40;2201.60;;;;;;4949926;29;20074;-83
2021/01/27 02:10:19;;;;;;;25.10;17.60;;;51.20;2227.20;;;;;;4935145;29;20033;-75
2021/01/27 02:13:13;;;;;;;24.65;18.17;;;26.30;2201.60;;;;;;4945537;29;20028;-75
2021/01/27 02:15:54;;;;;;;25.13;16.95;;;26.30;2201.60;;;;;;4951338;29;20035;-76
2021/01/27 02:18:33;;;;;;;24.10;16.80;;;26.30;2201.60;;;;;;4949190;29;20119;-76
2021/01/27 02:21:10;;;;;;;26.88;18.25;;;26.30;2201.60;;;;;;4938390;29;20031;-75
2021/01/27 02:24:01;;;;;;;23.90;17.05;;;26.30;2201.60;;;;;;4949662;29;20031;-76
2021/01/27 02:26:41;;;;;;;25.88;18.17;;;26.30;2201.60;;;;;;4947052;29;20374;-76
2021/01/27 02:29:33;;;;;;;26.17;17.88;;;26.30;2201.60;;;;;;4945062;29;20031;-75
2021/01/27 02:32:22;;;;;;;26.10;18.52;;;26.30;2201.60;;;;;;4951401;29;20015;-76
2021/01/27 02:35:15;;;;;;;24.65;17.85;;;26.30;2201.60;;;;;;4907008;29;20047;-75
2021/01/27 02:38:25;;;;;;;24.70;18.15;;;26.30;2201.60;;;;;;4904628;29;20075;-76
2021/01/27 02:41:05;;;;;;;28.25;18.23;;;26.30;2201.60;;;;;;4831472;29;20047;-75
2021/01/27 02:43:49;;;;;;;24.92;18.17;;;26.30;2201.60;;;;;;4829495;29;20034;-79
2021/01/27 02:46:42;;;;;;;24.48;17.63;;;26.30;2201.60;;;;;;4819037;29;20130;-76
2021/01/27 02:49:16;;;;;;;24.63;17.17;;;26.30;2201.60;;;;;;4827433;29;20031;-80
2021/01/27 02:52:06;;;;;;;25.85;17.10;;;26.30;2201.60;;;;;;4836459;29;20041;-75
2021/01/27 02:54:43;;;;;;;27.80;18.55;;;26.30;2201.60;;;;;;4839714;29;20037;-83
2021/01/27 02:57:28;;;;;;;23.73;17.05;;;26.30;2201.60;;;;;;4838162;29;20527;-76
2021/01/27 03:00:07;;;;;;;26.42;19.42;;;26.30;2201.60;;;;;;4824142;29;20493;-80
2021/01/27 03:03:07;;;;;;;28.60;20.02;;;26.30;2201.60;;;;;;4840662;29;20033;-80
2021/01/27 03:05:40;;;;;;;28.38;19.15;;;26.20;2201.60;;;;;;4838655;29;20034;-76
2021/01/27 03:08:23;;;;;;;25.10;18.23;;;26.30;2201.60;;;;;;4832762;29;20550;-75
2021/01/27 03:11:10;;;;;;;30.55;20.10;;;26.20;2201.60;;;;;;4834486;29;20062;-83
2021/01/27 03:13:37;;;;;;;27.80;19.60;;;26.20;2201.60;;;;;;4868342;29;20499;-76
2021/01/27 03:16:12;;;;;;;29.77;19.77;;;26.30;2201.60;;;;;;4874419;29;20075;-75
2021/01/27 03:18:41;;;;;;;29.77;19.90;;;26.30;2201.60;;;;;;4943666;29;20047;-75
2021/01/27 03:21:17;;;;;;;27.60;20.35;;;26.30;2201.60;;;;;;4948031;29;20048;-76
2021/01/27 03:24:02;;;;;;;27.00;19.65;;;26.30;2201.60;;;;;;4947788;29;20086;-81
2021/01/27 03:27:04;;;;;;;25.83;18.85;;;26.20;2201.60;;;;;;4949411;29;20031;-79
2021/01/27 03:30:02;;;;;;;28.02;18.92;;;26.30;2201.60;;;;;;4948488;28;20092;-78
2021/01/27 03:32:33;;;;;;;27.98;20.27;;;26.20;2201.60;;;;;;4943622;29;20067;-82
2021/01/27 03:35:38;;;;;;;27.40;19.25;;;26.20;2201.60;;;;;;4931098;29;20031;-75
2021/01/27 03:38:20;;;;;;;30.33;19.60;;;26.20;2201.60;;;;;;4938504;29;20393;-82
2021/01/27 03:40:51;;;;;;;28.90;19.67;;;26.20;2201.60;;;;;;4944360;29;20038;-76
2021/01/27 03:43:39;;;;;;;28.00;20.15;;;26.20;2201.60;;;;;;4951132;29;20024;-79
2021/01/27 03:46:38;;;;;;;29.45;19.98;;;26.10;2201.60;;;;;;4948163;29;20060;-82
2021/01/27 03:49:20;;;;;;;29.80;20.33;;;26.20;2201.60;;;;;;4947084;29;20023;-75
2021/01/27 03:51:54;;;;;;;30.13;21.85;;;26.20;2201.60;;;;;;4946791;29;20022;-78
2021/01/27 03:54:20;;;;;;;28.38;20.42;;;26.20;2201.60;;;;;;4945199;29;20079;-76
2021/01/27 03:56:52;;;;;;;30.17;21.13;;;26.20;2201.60;;;;;;4946116;29;20033;-83
2021/01/27 03:59:18;;;;;;;31.65;20.63;;;26.20;2201.60;;;;;;4943821;28;20035;-82
2021/01/27 04:01:57;;;;;;;29.10;20.60;;;51.20;2227.20;;;;;;4946655;29;20028;-83
2021/01/27 04:04:24;;;;;;;32.28;21.63;;;26.20;2201.60;;;;;;4950409;28;20042;-82
2021/01/27 04:06:50;;;;;;;31.60;21.27;;;26.20;2201.60;;;;;;4950418;29;20031;-82
2021/01/27 04:09:16;;;;;;;29.75;21.75;;;26.20;2201.60;;;;;;4946253;29;20401;-84
2021/01/27 04:11:45;;;;;;;27.48;20.30;;;26.20;2201.60;;;;;;4960742;29;20196;-79
2021/01/27 04:14:10;;;;;;;28.60;20.85;;;26.10;2201.60;;;;;;4940397;29;20032;-75
2021/01/27 04:16:37;;;;;;;31.83;21.40;;;26.10;2201.60;;;;;;4938852;29;20389;-77
2021/01/27 04:19:05;;;;;;;29.25;21.35;;;26.10;2201.60;;;;;;4943098;29;20481;-75
2021/01/27 04:21:31;;;;;;;31.02;21.30;;;26.20;2201.60;;;;;;4945299;29;20107;-76
2021/01/27 04:23:56;;;;;;;30.45;20.77;;;26.20;2201.60;;;;;;4942463;29;20485;-77
2021/01/27 04:26:22;;;;;;;30.17;21.17;;;26.10;2201.60;;;;;;4941764;29;20031;-83
2021/01/27 04:28:51;;;;;;;28.20;20.65;;;26.10;2201.60;;;;;;4943229;29;20083;-75
2021/01/27 04:31:18;;;;;;;27.95;21.10;;;25.80;2201.60;;;;;;4947191;29;20035;-75
2021/01/27 04:33:45;;;;;;;29.40;20.55;;;26.20;2201.60;;;;;;4955263;29;20389;-83
2021/01/27 04:36:17;;;;;;;29.17;21.10;;;26.20;2201.60;;;;;;4936751;29;20043;-76
2021/01/27 04:38:44;;;;;;;31.85;21.73;;;26.20;2201.60;;;;;;4939538;29;20028;-76
2021/01/27 04:41:10;;;;;;;29.75;21.25;;;26.10;2201.60;;;;;;4926653;29;20385;-77
2021/01/27 04:43:45;;;;;;;30.08;21.52;;;26.10;2201.60;;;;;;4950888;29;20024;-75
2021/01/27 04:46:29;;;;;;;33.53;22.60;;;26.10;2201.60;;;;;;4942056;29;20074;-77
2021/01/27 04:49:10;;;;;;;37.10;23.88;;;26.10;2201.60;;;;;;4927761;29;20116;-76
2021/01/27 04:52:04;;;;;;;34.17;22.35;;;26.10;2201.60;;;;;;4945183;29;20028;-75
2021/01/27 04:54:42;;;;;;;34.20;21.75;;;26.00;2201.60;;;;;;4946021;29;20039;-78
2021/01/27 04:57:16;;;;;;;32.65;23.10;;;26.00;2201.60;;;;;;4933722;29;20094;-76
2021/01/27 04:59:51;;;;;;;36.15;22.48;;;26.10;2201.60;;;;;;4942970;29;20039;-75
2021/01/27 05:02:28;;;;;;;33.30;22.52;;;26.10;2201.60;;;;;;4915575;29;20091;-77
2021/01/27 05:05:08;;;;;;;37.33;23.25;;;26.10;2201.60;;;;;;4940886;29;20051;-76
2021/01/27 05:08:23;;;;;;;32.03;21.60;;;26.10;2201.60;;;;;;4932463;29;20087;-79
2021/01/27 05:11:00;;;;;;;30.33;21.02;;;26.10;2201.60;;;;;;4823332;29;20576;-79
2021/01/27 05:14:02;;;;;;;29.88;20.52;;;26.10;2201.60;;;;;;4825358;29;20039;-75
2021/01/27 05:16:31;;;;;;;34.80;22.80;;;26.10;2201.60;;;;;;4818537;29;20040;-77
2021/01/27 05:19:09;;;;;;;30.13;20.95;;;26.10;2201.60;;;;;;4831041;29;20087;-82
2021/01/27 05:21:38;;;;;;;28.27;19.88;;;26.20;2201.60;;;;;;4823782;29;20065;-81
2021/01/27 05:24:11;;;;;;;30.02;21.70;;;26.20;2201.60;;;;;;4828282;29;20113;-75
2021/01/27 05:26:40;;;;;;;32.23;21.10;;;26.20;2201.60;;;;;;4824268;29;20520;-72
2021/01/27 05:29:20;;;;;;;29.90;20.83;;;26.20;2201.60;;;;;;4829263;29;20041;-82
2021/01/27 05:32:08;;;;;;;29.90;19.73;;;26.20;2201.60;;;;;;4840962;29;20026;-75
2021/01/27 05:34:35;;;;;;;33.05;21.90;;;26.30;2201.60;;;;;;4833212;29;20041;-73
2021/01/27 05:37:06;;;;;;;34.97;21.73;;;26.20;2201.60;;;;;;4820755;29;20049;-73
2021/01/27 05:39:32;;;;;;;37.88;22.92;;;26.20;2201.60;;;;;;4820203;29;20095;-73
2021/01/27 05:42:05;;;;;;;34.65;23.08;;;26.30;2201.60;;;;;;4830679;29;20035;-75
2021/01/27 05:44:31;;;;;;;38.80;25.45;;;26.30;2201.60;;;;;;4835339;29;20117;-74
2021/01/27 05:47:18;;;;;;;35.53;22.60;;;26.20;2201.60;;;;;;4877549;29;20175;-75
2021/01/27 05:49:44;;;;;;;34.53;23.63;;;26.30;2201.60;;;;;;4936000;29;20079;-77
2021/01/27 05:52:15;;;;;;;32.40;21.30;;;26.20;2201.60;;;;;;4945978;28;20057;-76
2021/01/27 05:54:42;;;;;;;33.70;21.90;;;26.20;2201.60;;;;;;4947056;29;20008;-75
2021/01/27 05:57:22;;;;;;;34.92;23.05;;;26.20;2201.60;;;;;;4938827;29;20038;-71
2021/01/27 05:59:48;;;;;;;29.42;21.10;;;26.20;2201.60;;;;;;4934626;29;20098;-75
2021/01/27 06:02:31;;;;;;;25.75;17.70;;;26.20;2201.60;;;;;;4944755;29;20054;-74
2021/01/27 06:04:59;;;;;;;21.60;15.57;;;26.10;2201.60;;;;;;4944764;29;20192;-75
2021/01/27 06:07:44;;;;;;;25.05;19.55;;;26.10;2201.60;;;;;;4946827;29;20033;-76
2021/01/27 06:10:18;;;;;;;29.67;19.05;;;26.20;2201.60;;;;;;4920696;29;20047;-78
2021/01/27 06:12:44;;;;;;;;;;;26.10;2201.60;;;;;;4939369;29;20032;-75
2021/01/27 06:15:29;;;;;;;20.63;15.75;;;26.10;2201.60;;;;;;4952077;29;19913;-78
2021/01/27 06:17:56;;;;;;;26.88;20.63;;;26.10;2201.60;;;;;;4938699;28;20015;-75
2021/01/27 06:20:34;;;;;;;22.27;16.38;;;26.10;2201.60;;;;;;4954283;29;20028;-74
2021/01/27 06:23:24;;;;;;;22.92;17.15;;;26.10;2201.60;;;;;;4954081;29;20008;-74
2021/01/27 06:25:53;;;;;;;23.85;18.70;;;26.10;2201.60;;;;;;4956368;28;20035;-74
2021/01/27 06:28:56;;;;;;;24.58;18.35;;;26.10;2201.60;;;;;;4952996;28;20051;-74
2021/01/27 06:32:03;;;;;;;26.33;21.23;;;26.20;2201.60;;;;;;4939554;29;20665;-74
2021/01/27 06:34:50;;;;;;;22.48;17.48;;;26.10;2201.60;;;;;;4953039;28;20035;-74
2021/01/27 06:37:24;;;;;;;27.58;19.13;;;26.10;2201.60;;;;;;4953282;29;20479;-74
2021/01/27 06:40:31;;;;;;;28.25;19.35;;;26.10;2201.60;;;;;;4925031;29;20024;-74
2021/01/27 06:43:15;;;;;;;26.42;19.98;;;26.10;2201.60;;;;;;4952415;29;20144;-76
2021/01/27 06:45:49;;;;;;;25.65;19.55;;;26.10;2201.60;;;;;;4936798;29;20119;-76
2021/01/27 06:48:36;;;;;;;24.90;19.25;;;26.20;2201.60;;;;;;4937707;29;20175;-80
2021/01/27 06:51:42;;;;;;;25.50;18.15;;;26.20;2201.60;;;;;;4944901;29;20092;-75
2021/01/27 06:54:17;;;;;;;28.42;19.83;;;26.30;2201.60;;;;;;4952812;28;20008;-75
2021/01/27 06:57:23;;;;;;;24.67;18.27;;;26.20;2201.60;;;;;;4956682;29;20043;-77
2021/01/27 07:00:12;;;;;;;26.70;18.95;;;26.20;2201.60;;;;;;4948520;29;20091;-74
2021/01/27 07:02:59;;;;;;;28.20;19.85;;;26.10;2201.60;;;;;;4953307;29;20101;-75
2021/01/27 07:06:06;;;;;;;32.95;21.77;;;26.00;2201.60;;;;;;4947615;29;20055;-74
2021/01/27 07:08:53;;;;;;;28.38;19.77;;;25.90;2201.60;;;;;;4959197;29;20038;-74
2021/01/27 07:11:45;;;;;;;28.65;19.08;;;25.80;2201.60;;;;;;4937342;29;20059;-75
2021/01/27 07:14:31;;;;;;;25.45;18.40;;;25.70;2201.60;;;;;;4864961;29;20499;-74
2021/01/27 07:17:24;;;;;;;26.98;20.67;;;25.60;2201.60;;;;;;4862900;29;20081;-76
2021/01/27 07:20:30;;;;;;;27.95;19.67;;;25.60;2201.60;;;;;;4857044;29;20041;-73
2021/01/27 07:23:40;;;;;;;23.40;18.25;;;25.60;2201.60;;;;;;4877596;29;20033;-78
2021/01/27 07:26:23;;;;;;;24.25;17.60;;;25.80;2201.60;;;;;;4871565;29;20120;-77
2021/01/27 07:29:37;;;;;;;23.58;17.83;;;25.70;2201.60;;;;;;4871623;29;20049;-76
2021/01/27 07:32:17;;;;;;;26.02;18.48;;;25.60;2201.60;;;;;;4871616;29;20048;-76
2021/01/27 07:34:50;;;;;;;22.63;16.85;;;26.10;2201.60;;;;;;4857229;29;20117;-81
2021/01/27 07:37:40;;;;;;;25.08;18.17;;;51.80;2227.20;;;;;;4857748;29;20034;-72
2021/01/27 07:40:11;;;;;;;37.55;25.92;;;52.00;2227.20;;;;;;4865170;29;20014;-73
2021/01/27 07:42:36;;;;;;;26.50;19.98;;;51.90;2227.20;;;;;;4881538;29;20045;-73
2021/01/27 07:45:07;;;;;;;32.28;19.77;;;52.10;2227.20;;;;;;4882810;29;20093;-73
2021/01/27 07:47:52;;;;;;;26.90;19.85;;;52.00;2227.20;;;;;;4878274;29;20041;-74
2021/01/27 07:50:21;;;;;;;20.77;17.58;;;77.10;2227.20;;;;;;4889793;29;20048;-73
2021/01/27 07:53:14;;;;;;;25.20;18.15;;;76.90;2227.20;;;;;;4954201;29;20034;-89
2021/01/27 07:55:59;;;;;;;23.95;17.45;;;77.50;2227.20;;;;;;4934742;29;20064;-72
2021/01/27 07:58:29;;;;;;;24.38;18.02;;;76.80;2227.20;;;;;;4945513;29;20042;-76
2021/01/27 08:00:57;;;;;;;26.30;18.70;;;52.10;2227.20;;;;;;4936536;29;20485;-72
2021/01/27 08:03:29;;;;;;;31.13;20.75;;;52.00;2227.20;;;;;;4952973;28;20020;-72
2021/01/27 08:06:12;;;;;;;20.02;15.82;;;52.00;2227.20;;;;;;4949229;29;20078;-79
2021/01/27 08:08:57;;;;;;;21.25;16.30;;;51.80;2227.20;;;;;;4937290;29;20023;-73
2021/01/27 08:11:37;;;;;;;38.72;27.65;;;51.60;2227.20;;;;;;4929927;29;20107;-79
2021/01/27 08:14:05;;;;;;;41.90;27.85;;;51.50;2227.20;;;;;;4933469;29;20020;-79
2021/01/27 08:16:38;;;;;;;32.20;23.75;;;51.50;2227.20;;;;;;4934195;29;20095;-73
2021/01/27 08:19:12;;;;;;;31.33;23.98;;;51.40;2227.20;;;;;;4931029;29;20071;-80
2021/01/27 08:21:50;;;;;;;42.90;29.35;;;51.40;2227.20;;;;;;4931562;29;20064;-73
2021/01/27 08:24:37;;;;;;;35.53;25.40;;;51.40;2227.20;;;;;;4977032;28;20012;-71
2021/01/27 08:27:16;;;;;;;31.13;21.83;;;51.50;2227.20;;;;;;4962523;28;20035;-72
2021/01/27 08:30:21;;;;;;;33.67;24.75;;;51.50;2227.20;;;;;;4940381;29;20102;-73
2021/01/27 08:33:34;;;;;;;35.13;24.00;;;51.50;2227.20;;;;;;4910623;28;20045;-72
2021/01/27 08:36:02;;;;;;;30.20;22.55;;;51.60;2227.20;;;;;;4907117;29;20432;-75
2021/01/27 08:38:31;;;;;;;33.33;23.58;;;51.80;2227.20;;;;;;4893266;29;20060;-81
2021/01/27 08:40:58;;;;;;;26.95;21.02;;;51.80;2227.20;;;;;;4901197;29;20040;-78
2021/01/27 08:43:35;;;;;;;31.85;23.20;;;52.00;2227.20;;;;;;4900339;29;20143;-78
2021/01/27 08:46:31;;;;;;;26.60;20.02;;;77.00;2227.20;;;;;;4899382;29;20053;-88
2021/01/27 08:48:58;;;;;;;25.80;20.02;;;77.00;2227.20;;;;;;4863520;29;20091;-82
2021/01/27 08:51:50;;;;;;;30.77;21.85;;;76.80;2227.20;;;;;;4864227;29;20046;-80
2021/01/27 08:54:47;;;;;;;25.58;19.58;;;76.80;2227.20;;;;;;4861844;29;20041;-85
2021/01/27 08:57:23;;;;;;;59.58;35.22;;;76.90;2227.20;;;;;;4837052;29;20057;-79
2021/01/27 09:00:16;;;;;;;34.33;25.05;;;77.10;2227.20;;;;;;4863641;29;20037;-80
2021/01/27 09:02:50;;;;;;;35.42;23.08;;;77.00;2227.20;;;;;;4864926;29;20037;-75
2021/01/27 09:05:38;;;;;;;32.15;23.83;;;76.90;2227.20;;;;;;4865741;29;20041;-83
2021/01/27 09:08:18;;;;;;;28.08;21.20;;;76.90;2227.20;;;;;;4875509;29;20041;-84
2021/01/27 09:10:57;;;;;;;38.80;26.00;;;76.90;2227.20;;;;;;4900319;29;20032;-73
2021/01/27 09:13:39;;;;;;;26.63;20.80;;;76.80;2227.20;;;;;;4900263;29;20040;-72
2021/01/27 09:16:07;;;;;;;28.05;19.95;;;76.80;2227.20;;;;;;4901479;29;20115;-78
2021/01/27 09:18:34;;;;;;;30.65;22.35;;;76.80;2227.20;;;;;;4902671;29;20096;-73
2021/01/27 09:21:15;;;;;;;24.77;19.00;;;76.80;2227.20;;;;;;4899697;29;20116;-73
2021/01/27 09:23:46;;;;;;;30.52;22.88;;;52.00;2227.20;;;;;;4919620;29;20032;-70
2021/01/27 09:26:57;;;;;;;35.53;24.83;;;52.00;2227.20;;;;;;4946859;28;20042;-70
2021/01/27 09:29:32;;;;;;;37.40;24.55;;;76.80;2227.20;;;;;;4897109;29;20029;-74
2021/01/27 09:32:12;;;;;;;35.65;23.67;;;76.90;2227.20;;;;;;4904347;29;20081;-72
2021/01/27 09:34:38;;;;;;;32.85;23.42;;;77.00;2227.20;;;;;;4901669;29;20048;-73
2021/01/27 09:37:15;;;;;;;31.15;22.33;;;77.10;2227.20;;;;;;4901028;29;20104;-72
2021/01/27 09:39:54;;;;;;;31.83;20.65;;;77.20;2227.20;;;;;;4868517;29;20044;-73
2021/01/27 09:42:27;;;;;;;28.38;21.25;;;77.20;2227.20;;;;;;4855971;29;20041;-74
2021/01/27 09:45:06;;;;;;;26.50;19.58;;;76.90;2227.20;;;;;;4875054;29;20025;-73
2021/01/27 09:47:33;;;;;;;31.13;22.02;;;76.80;2227.20;;;;;;4860684;29;20749;-71
2021/01/27 09:50:01;;;;;;;27.08;20.67;;;76.90;2227.20;;;;;;4872747;29;20043;-75
2021/01/27 09:52:29;;;;;;;32.58;21.58;;;76.90;2227.20;;;;;;4876480;29;20628;-83
2021/01/27 09:55:05;;;;;;;28.50;21.00;;;77.10;2227.20;;;;;;4865866;29;20444;-75
2021/01/27 09:57:33;;;;;;;26.35;20.15;;;77.50;2227.20;;;;;;4876332;29;20060;-82
2021/01/27 09:59:58;;;;;;;29.05;20.35;;;77.20;2227.20;;;;;;4887689;29;20502;-73
2021/01/27 10:02:29;;;;;;;30.08;21.60;;;77.20;2227.20;;;;;;4891456;29;20032;-72
2021/01/27 10:04:58;;;;;;;28.13;22.27;;;77.30;2227.20;;;;;;4889589;29;20067;-72
2021/01/27 10:07:30;;;;;;;24.40;19.27;;;77.50;2227.20;;;;;;4955143;29;20012;-71
2021/01/27 10:10:08;;;;;;;21.80;16.95;;;77.60;2227.20;;;;;;4945155;29;20171;-73
2021/01/27 10:12:46;;;;;;;24.85;18.80;;;77.70;2201.60;;;;;;4953972;28;20016;-73
2021/01/27 10:15:32;;;;;;;22.10;16.98;;;102.40;2201.60;;;;;;4956006;29;20028;-71
2021/01/27 10:18:24;;;;;;;21.77;16.75;;;102.50;2150.40;;;;;;4959885;28;20039;-71
2021/01/27 10:20:50;;;;;;;22.85;17.58;;;77.70;2150.40;;;;;;4946104;29;20040;-71
2021/01/27 10:23:35;;;;;;;22.33;16.80;;;77.60;2176.00;;;;;;4962646;28;20095;-72
2021/01/27 10:26:24;;;;;;;33.08;22.83;;;77.50;2176.00;;;;;;4948996;28;20043;-73
2021/01/27 10:29:15;;;;;;;26.13;17.50;;;77.30;2150.40;;;;;;4940061;29;20055;-76
2021/01/27 10:32:59;;;;;;;25.80;17.90;;;77.30;2176.00;;;;;;4872823;29;20071;-80
2021/01/27 10:36:10;;;;;;;24.80;17.98;;;77.50;2099.20;;;;;;4864229;29;20089;-76
2021/01/27 10:38:38;;;;;;;22.35;16.98;;;77.30;2124.80;;;;;;4855759;29;21263;-72
2021/01/27 10:41:20;;;;;;;21.67;17.25;;;77.30;2124.80;;;;;;4848147;29;20082;-72
2021/01/27 10:43:46;;;;;;;23.10;17.17;;;77.20;2150.40;;;;;;4843930;29;20128;-82
2021/01/27 10:46:38;;;;;;;23.80;16.73;;;77.30;2150.40;;;;;;4845292;29;20137;-78
2021/01/27 10:49:08;;;;;;;23.05;17.35;;;77.30;2099.20;;;;;;4835435;29;20432;-83
2021/01/27 10:51:34;;;;;;;23.50;17.33;;;77.30;2124.80;;;;;;4845929;29;20591;-87
2021/01/27 10:54:01;;;;;;;19.75;16.10;;;77.50;2150.40;;;;;;4849536;29;20165;-86
2021/01/27 10:56:30;;;;;;;21.65;16.73;;;77.50;2176.00;;;;;;4852159;29;20061;-87
2021/01/27 10:58:56;;;;;;;22.13;17.17;;;77.40;2201.60;;;;;;4847098;29;20030;-88
2021/01/27 11:01:28;;;;;;;20.42;15.40;;;77.50;2150.40;;;;;;4843111;29;20038;-86
2021/01/27 11:03:54;;;;;;;52.70;25.35;;;77.60;2099.20;;;;;;4842269;29;20046;-79
2021/01/27 11:06:20;;;;;;;43.03;22.05;;;102.40;2227.20;;;;;;4849736;29;20576;-74
2021/01/27 11:08:51;;;;;;;35.30;19.52;;;102.80;2227.20;;;;;;4898399;29;20062;-82
2021/01/27 11:11:17;;;;;;;65.05;34.22;;;102.80;2073.60;;;;;;4918227;29;20043;-82
2021/01/27 11:13:43;;;;;;;30.73;21.83;;;102.80;2227.20;;;;;;4933725;29;20036;-80
2021/01/27 11:16:09;;;;;;;72.95;41.72;;;103.10;2201.60;;;;;;4938818;29;20031;-87
2021/01/27 11:18:36;;;;;;;39.92;28.17;;;103.10;2227.20;;;;;;4932514;29;20035;-84
2021/01/27 11:21:04;;;;;;;21.35;16.67;;;102.70;2073.60;;;;;;4928719;29;20034;-87
2021/01/27 11:23:29;;;;;;;23.23;15.88;;;102.40;2048.00;;;;;;4934849;29;20119;-87
2021/01/27 11:25:55;;;;;;;29.38;23.02;;;102.40;2048.00;;;;;;4941289;29;20054;-83
2021/01/27 11:28:22;;;;;;;22.70;14.27;;;102.60;2048.00;;;;;;4921485;29;20135;-90
2021/01/27 11:30:49;;;;;;;19.73;14.15;;;102.60;1996.80;;;;;;4927702;29;20032;-75
2021/01/27 11:33:15;;;;;;;20.55;15.45;;;102.60;2048.00;;;;;;4931208;29;20038;-82
2021/01/27 11:35:41;;;;;;;23.67;15.75;;;102.60;2073.60;;;;;;4930035;29;20054;-82
2021/01/27 11:38:07;;;;;;;23.50;16.90;;;102.40;2099.20;;;;;;4926147;29;20486;-79
2021/01/27 11:40:33;;;;;;;22.05;17.25;;;102.40;2099.20;;;;;;4931314;29;20134;-75
2021/01/27 11:42:58;;;;;;;20.90;15.90;;;77.70;2099.20;;;;;;4927355;29;20498;-74
2021/01/27 11:45:25;;;;;;;21.80;17.08;;;77.70;2124.80;;;;;;4933450;29;20047;-73
2021/01/27 11:47:50;;;;;;;23.50;17.02;;;77.70;2150.40;;;;;;4933652;29;20039;-74
2021/01/27 11:50:21;;;;;;;26.50;17.33;;;77.70;2150.40;;;;;;4949256;29;20019;-77
2021/01/27 11:52:49;;;;;;;23.02;17.48;;;77.60;2176.00;;;;;;4916305;29;20724;-68
2021/01/27 11:55:15;;;;;;;22.52;16.77;;;102.40;2227.20;;;;;;4930613;29;20032;-80
2021/01/27 11:57:41;;;;;;;23.02;16.25;;;102.40;2150.40;;;;;;4918142;29;20095;-72
2021/01/27 12:00:08;;;;;;;27.70;19.20;;;102.40;2150.40;;;;;;4933002;29;20051;-73
2021/01/27 12:02:34;;;;;;;25.83;17.63;;;77.70;2150.40;;;;;;4932938;29;20035;-86
2021/01/27 12:05:00;;;;;;;23.00;16.60;;;77.60;2176.00;;;;;;4940761;29;20559;-87
2021/01/27 12:07:25;;;;;;;24.10;17.85;;;77.50;2176.00;;;;;;4936588;29;20038;-84
2021/01/27 12:09:51;;;;;;;23.45;16.17;;;77.50;2176.00;;;;;;4929517;29;20055;-81
2021/01/27 12:12:17;;;;;;;23.23;15.80;;;77.60;2150.40;;;;;;4938392;29;20043;-79
2021/01/27 12:14:43;;;;;;;24.23;15.73;;;77.60;2150.40;;;;;;4933817;29;20048;-79
2021/01/27 12:17:08;;;;;;;19.00;14.93;;;77.60;2124.80;;;;;;4933898;29;20043;-82
2021/01/27 12:19:34;;;;;;;24.17;15.20;;;77.70;2150.40;;;;;;4937493;29;20020;-84
2021/01/27 12:21:59;;;;;;;25.27;15.45;;;77.70;2124.80;;;;;;4932877;29;20039;-75
2021/01/27 12:24:32;;;;;;;18.27;13.73;;;77.60;2124.80;;;;;;4938733;29;20115;-72
2021/01/27 12:26:58;;;;;;;21.33;13.52;;;77.60;2099.20;;;;;;4926884;29;20028;-78
2021/01/27 12:29:24;;;;;;;18.08;11.90;;;77.60;2048.00;;;;;;4946357;29;20044;-85
2021/01/27 12:31:50;;;;;;;20.55;11.50;;;77.50;2048.00;;;;;;4947146;29;20028;-89
2021/01/27 12:34:16;;;;;;;17.05;11.45;;;77.50;2022.40;;;;;;4927433;29;20031;-78
2021/01/27 12:36:43;;;;;;;17.30;12.13;;;77.40;2048.00;;;;;;4940826;29;20055;-72
2021/01/27 12:39:09;;;;;;;15.52;11.45;;;77.40;2022.40;;;;;;4937487;29;20036;-73
2021/01/27 12:41:36;;;;;;;18.27;12.48;;;77.50;2099.20;;;;;;4952033;29;20012;-74
2021/01/27 12:44:02;;;;;;;17.92;13.38;;;77.50;2048.00;;;;;;4956229;29;20011;-73
2021/01/27 12:46:28;;;;;;;19.17;12.93;;;77.50;2048.00;;;;;;4934159;29;20062;-74
2021/01/27 12:48:54;;;;;;;18.45;13.50;;;77.50;2022.40;;;;;;4935008;29;20549;-71
2021/01/27 12:51:20;;;;;;;21.48;14.07;;;77.60;2048.00;;;;;;4940779;29;20044;-82